sensor_id;sensor_type;location;lat;lon;timestamp;pressure;altitude;pressure_sealevel;temperature
9119;BMP180;4594;50.994;7.126;2022-08-19T00:01:31;100400.00;;;23.60
9119;BMP180;4594;50.994;7.126;2022-08-19T00:04:04;100401.00;;;23.60
9119;BMP180;4594;50.994;7.126;2022-08-19T00:06:30;100401.00;;;23.60
9119;BMP180;4594;50.994;7.126;2022-08-19T00:08:58;100411.00;;;23.60
9119;BMP180;4594;50.994;7.126;2022-08-19T00:11:26;100408.00;;;23.50
9119;BMP180;4594;50.994;7.126;2022-08-19T00:13:54;100411.00;;;23.50
9119;BMP180;4594;50.994;7.126;2022-08-19T00:16:20;100390.00;;;23.50
9119;BMP180;4594;50.994;7.126;2022-08-19T00:18:47;100391.00;;;23.50
9119;BMP180;4594;50.994;7.126;2022-08-19T00:21:14;100386.00;;;23.40
9119;BMP180;4594;50.994;7.126;2022-08-19T00:23:41;100403.00;;;23.40
9119;BMP180;4594;50.994;7.126;2022-08-19T00:26:07;100401.00;;;23.40
9119;BMP180;4594;50.994;7.126;2022-08-19T00:28:33;100389.00;;;23.40
9119;BMP180;4594;50.994;7.126;2022-08-19T00:31:03;100406.00;;;23.40
9119;BMP180;4594;50.994;7.126;2022-08-19T00:33:31;100402.00;;;23.40
9119;BMP180;4594;50.994;7.126;2022-08-19T00:36:03;100404.00;;;23.30
9119;BMP180;4594;50.994;7.126;2022-08-19T00:38:30;100414.00;;;23.30
9119;BMP180;4594;50.994;7.126;2022-08-19T00:40:56;100394.00;;;23.30
9119;BMP180;4594;50.994;7.126;2022-08-19T00:43:25;100398.00;;;23.30
9119;BMP180;4594;50.994;7.126;2022-08-19T00:45:52;100392.00;;;23.20
9119;BMP180;4594;50.994;7.126;2022-08-19T00:48:19;100395.00;;;23.20
9119;BMP180;4594;50.994;7.126;2022-08-19T00:50:49;100395.00;;;23.20
9119;BMP180;4594;50.994;7.126;2022-08-19T00:53:21;100407.00;;;23.20
9119;BMP180;4594;50.994;7.126;2022-08-19T00:55:51;100406.00;;;23.20
9119;BMP180;4594;50.994;7.126;2022-08-19T00:58:21;100389.00;;;23.10
9119;BMP180;4594;50.994;7.126;2022-08-19T01:00:48;100399.00;;;23.10
9119;BMP180;4594;50.994;7.126;2022-08-19T01:03:18;100397.00;;;23.10
9119;BMP180;4594;50.994;7.126;2022-08-19T01:05:47;100389.00;;;23.10
9119;BMP180;4594;50.994;7.126;2022-08-19T01:08:16;100397.00;;;23.10
9119;BMP180;4594;50.994;7.126;2022-08-19T01:10:51;100410.00;;;23.00
9119;BMP180;4594;50.994;7.126;2022-08-19T01:13:23;100393.00;;;23.00
9119;BMP180;4594;50.994;7.126;2022-08-19T01:16:03;100404.00;;;23.00
9119;BMP180;4594;50.994;7.126;2022-08-19T01:18:32;100409.00;;;23.00
9119;BMP180;4594;50.994;7.126;2022-08-19T01:21:10;100393.00;;;22.90
9119;BMP180;4594;50.994;7.126;2022-08-19T01:23:43;100389.00;;;22.90
9119;BMP180;4594;50.994;7.126;2022-08-19T01:26:20;100400.00;;;22.90
9119;BMP180;4594;50.994;7.126;2022-08-19T01:28:51;100410.00;;;22.90
9119;BMP180;4594;50.994;7.126;2022-08-19T01:31:23;100393.00;;;22.90
9119;BMP180;4594;50.994;7.126;2022-08-19T01:33:51;100379.00;;;22.90
9119;BMP180;4594;50.994;7.126;2022-08-19T01:36:39;100387.00;;;22.90
9119;BMP180;4594;50.994;7.126;2022-08-19T01:39:11;100375.00;;;22.80
9119;BMP180;4594;50.994;7.126;2022-08-19T01:41:37;100392.00;;;22.80
9119;BMP180;4594;50.994;7.126;2022-08-19T01:44:06;100385.00;;;22.80
9119;BMP180;4594;50.994;7.126;2022-08-19T01:46:32;100377.00;;;22.80
9119;BMP180;4594;50.994;7.126;2022-08-19T01:48:58;100387.00;;;22.80
9119;BMP180;4594;50.994;7.126;2022-08-19T01:51:24;100382.00;;;22.80
9119;BMP180;4594;50.994;7.126;2022-08-19T01:53:51;100372.00;;;22.80
9119;BMP180;4594;50.994;7.126;2022-08-19T01:56:19;100378.00;;;22.80
9119;BMP180;4594;50.994;7.126;2022-08-19T01:58:51;100383.00;;;22.80
9119;BMP180;4594;50.994;7.126;2022-08-19T02:01:19;100384.00;;;22.80
9119;BMP180;4594;50.994;7.126;2022-08-19T02:03:45;100388.00;;;22.70
9119;BMP180;4594;50.994;7.126;2022-08-19T02:06:12;100380.00;;;22.70
9119;BMP180;4594;50.994;7.126;2022-08-19T02:08:39;100396.00;;;22.70
9119;BMP180;4594;50.994;7.126;2022-08-19T02:11:06;100395.00;;;22.60
9119;BMP180;4594;50.994;7.126;2022-08-19T02:13:33;100400.00;;;22.60
9119;BMP180;4594;50.994;7.126;2022-08-19T02:15:59;100399.00;;;22.60
9119;BMP180;4594;50.994;7.126;2022-08-19T02:18:25;100396.00;;;22.60
9119;BMP180;4594;50.994;7.126;2022-08-19T02:20:52;100374.00;;;22.60
9119;BMP180;4594;50.994;7.126;2022-08-19T02:23:18;100388.00;;;22.50
9119;BMP180;4594;50.994;7.126;2022-08-19T02:25:47;100381.00;;;22.50
9119;BMP180;4594;50.994;7.126;2022-08-19T02:28:13;100388.00;;;22.50
9119;BMP180;4594;50.994;7.126;2022-08-19T02:30:41;100379.00;;;22.50
9119;BMP180;4594;50.994;7.126;2022-08-19T02:33:07;100386.00;;;22.50
9119;BMP180;4594;50.994;7.126;2022-08-19T02:35:33;100371.00;;;22.50
9119;BMP180;4594;50.994;7.126;2022-08-19T02:37:59;100369.00;;;22.50
9119;BMP180;4594;50.994;7.126;2022-08-19T02:40:58;100381.00;;;22.50
9119;BMP180;4594;50.994;7.126;2022-08-19T02:43:25;100398.00;;;22.50
9119;BMP180;4594;50.994;7.126;2022-08-19T02:45:52;100376.00;;;22.40
9119;BMP180;4594;50.994;7.126;2022-08-19T02:48:20;100398.00;;;22.40
9119;BMP180;4594;50.994;7.126;2022-08-19T02:50:50;100397.00;;;22.40
9119;BMP180;4594;50.994;7.126;2022-08-19T02:53:27;100404.00;;;22.40
9119;BMP180;4594;50.994;7.126;2022-08-19T02:55:53;100404.00;;;22.40
9119;BMP180;4594;50.994;7.126;2022-08-19T02:58:22;100404.00;;;22.40
9119;BMP180;4594;50.994;7.126;2022-08-19T03:00:52;100385.00;;;22.40
9119;BMP180;4594;50.994;7.126;2022-08-19T03:03:19;100395.00;;;22.40
9119;BMP180;4594;50.994;7.126;2022-08-19T03:05:46;100396.00;;;22.30
9119;BMP180;4594;50.994;7.126;2022-08-19T03:08:14;100388.00;;;22.30
9119;BMP180;4594;50.994;7.126;2022-08-19T03:10:46;100389.00;;;22.30
9119;BMP180;4594;50.994;7.126;2022-08-19T03:13:16;100379.00;;;22.30
9119;BMP180;4594;50.994;7.126;2022-08-19T03:15:46;100383.00;;;22.30
9119;BMP180;4594;50.994;7.126;2022-08-19T03:18:14;100400.00;;;22.30
9119;BMP180;4594;50.994;7.126;2022-08-19T03:20:50;100400.00;;;22.30
9119;BMP180;4594;50.994;7.126;2022-08-19T03:23:18;100394.00;;;22.30
9119;BMP180;4594;50.994;7.126;2022-08-19T03:25:47;100407.00;;;22.30
9119;BMP180;4594;50.994;7.126;2022-08-19T03:28:16;100413.00;;;22.30
9119;BMP180;4594;50.994;7.126;2022-08-19T03:30:55;100416.00;;;22.30
9119;BMP180;4594;50.994;7.126;2022-08-19T03:33:23;100411.00;;;22.30
9119;BMP180;4594;50.994;7.126;2022-08-19T03:36:10;100410.00;;;22.30
9119;BMP180;4594;50.994;7.126;2022-08-19T03:38:47;100410.00;;;22.30
9119;BMP180;4594;50.994;7.126;2022-08-19T03:41:18;100408.00;;;22.30
9119;BMP180;4594;50.994;7.126;2022-08-19T03:43:45;100418.00;;;22.30
9119;BMP180;4594;50.994;7.126;2022-08-19T03:46:22;100408.00;;;22.20
9119;BMP180;4594;50.994;7.126;2022-08-19T03:48:51;100409.00;;;22.30
9119;BMP180;4594;50.994;7.126;2022-08-19T03:51:28;100424.00;;;22.20
9119;BMP180;4594;50.994;7.126;2022-08-19T03:53:58;100415.00;;;22.20
9119;BMP180;4594;50.994;7.126;2022-08-19T03:56:25;100426.00;;;22.20
9119;BMP180;4594;50.994;7.126;2022-08-19T03:58:54;100422.00;;;22.20
9119;BMP180;4594;50.994;7.126;2022-08-19T04:01:23;100415.00;;;22.20
9119;BMP180;4594;50.994;7.126;2022-08-19T04:03:52;100426.00;;;22.20
9119;BMP180;4594;50.994;7.126;2022-08-19T04:06:23;100422.00;;;22.20
9119;BMP180;4594;50.994;7.126;2022-08-19T04:08:52;100410.00;;;22.10
9119;BMP180;4594;50.994;7.126;2022-08-19T04:11:26;100416.00;;;22.10
9119;BMP180;4594;50.994;7.126;2022-08-19T04:13:54;100418.00;;;22.10
9119;BMP180;4594;50.994;7.126;2022-08-19T04:16:23;100426.00;;;22.10
9119;BMP180;4594;50.994;7.126;2022-08-19T04:18:50;100423.00;;;22.10
9119;BMP180;4594;50.994;7.126;2022-08-19T04:21:20;100432.00;;;22.10
9119;BMP180;4594;50.994;7.126;2022-08-19T04:23:47;100432.00;;;22.10
9119;BMP180;4594;50.994;7.126;2022-08-19T04:26:21;100434.00;;;22.10
9119;BMP180;4594;50.994;7.126;2022-08-19T04:28:47;100424.00;;;22.10
9119;BMP180;4594;50.994;7.126;2022-08-19T04:31:21;100445.00;;;22.10
9119;BMP180;4594;50.994;7.126;2022-08-19T04:33:47;100449.00;;;22.10
9119;BMP180;4594;50.994;7.126;2022-08-19T04:36:28;100440.00;;;22.20
9119;BMP180;4594;50.994;7.126;2022-08-19T04:39:00;100450.00;;;22.20
9119;BMP180;4594;50.994;7.126;2022-08-19T04:41:26;100451.00;;;22.20
9119;BMP180;4594;50.994;7.126;2022-08-19T04:44:11;100447.00;;;22.10
9119;BMP180;4594;50.994;7.126;2022-08-19T04:46:38;100451.00;;;22.10
9119;BMP180;4594;50.994;7.126;2022-08-19T04:49:06;100450.00;;;22.20
9119;BMP180;4594;50.994;7.126;2022-08-19T04:51:33;100438.00;;;22.20
9119;BMP180;4594;50.994;7.126;2022-08-19T04:54:02;100438.00;;;22.20
9119;BMP180;4594;50.994;7.126;2022-08-19T04:56:28;100436.00;;;22.20
9119;BMP180;4594;50.994;7.126;2022-08-19T04:58:56;100452.00;;;22.20
9119;BMP180;4594;50.994;7.126;2022-08-19T05:01:28;100451.00;;;22.20
9119;BMP180;4594;50.994;7.126;2022-08-19T05:03:55;100451.00;;;22.20
9119;BMP180;4594;50.994;7.126;2022-08-19T05:06:23;100454.00;;;22.30
9119;BMP180;4594;50.994;7.126;2022-08-19T05:08:49;100445.00;;;22.30
9119;BMP180;4594;50.994;7.126;2022-08-19T05:11:25;100439.00;;;22.30
9119;BMP180;4594;50.994;7.126;2022-08-19T05:13:52;100441.00;;;22.30
9119;BMP180;4594;50.994;7.126;2022-08-19T05:16:20;100466.00;;;22.40
9119;BMP180;4594;50.994;7.126;2022-08-19T05:18:47;100473.00;;;22.40
9119;BMP180;4594;50.994;7.126;2022-08-19T05:21:32;100476.00;;;22.40
9119;BMP180;4594;50.994;7.126;2022-08-19T05:24:19;100471.00;;;22.40
9119;BMP180;4594;50.994;7.126;2022-08-19T05:26:49;100452.00;;;22.50
9119;BMP180;4594;50.994;7.126;2022-08-19T05:29:20;100467.00;;;22.50
9119;BMP180;4594;50.994;7.126;2022-08-19T05:31:48;100472.00;;;22.50
9119;BMP180;4594;50.994;7.126;2022-08-19T05:34:19;100456.00;;;22.50
9119;BMP180;4594;50.994;7.126;2022-08-19T05:36:49;100456.00;;;22.50
9119;BMP180;4594;50.994;7.126;2022-08-19T05:39:20;100474.00;;;22.60
9119;BMP180;4594;50.994;7.126;2022-08-19T05:41:54;100478.00;;;22.60
9119;BMP180;4594;50.994;7.126;2022-08-19T05:44:27;100479.00;;;22.70
9119;BMP180;4594;50.994;7.126;2022-08-19T05:46:57;100484.00;;;22.70
9119;BMP180;4594;50.994;7.126;2022-08-19T05:49:24;100465.00;;;22.80
9119;BMP180;4594;50.994;7.126;2022-08-19T05:51:51;100463.00;;;22.80
9119;BMP180;4594;50.994;7.126;2022-08-19T05:54:18;100464.00;;;22.90
9119;BMP180;4594;50.994;7.126;2022-08-19T05:56:45;100474.00;;;23.00
9119;BMP180;4594;50.994;7.126;2022-08-19T05:59:15;100463.00;;;23.00
9119;BMP180;4594;50.994;7.126;2022-08-19T06:01:44;100459.00;;;23.10
9119;BMP180;4594;50.994;7.126;2022-08-19T06:04:12;100471.00;;;23.20
9119;BMP180;4594;50.994;7.126;2022-08-19T06:06:40;100464.00;;;23.30
9119;BMP180;4594;50.994;7.126;2022-08-19T06:09:07;100457.00;;;23.40
9119;BMP180;4594;50.994;7.126;2022-08-19T06:11:39;100464.00;;;23.50
9119;BMP180;4594;50.994;7.126;2022-08-19T06:14:10;100466.00;;;23.60
9119;BMP180;4594;50.994;7.126;2022-08-19T06:16:39;100462.00;;;23.80
9119;BMP180;4594;50.994;7.126;2022-08-19T06:19:17;100457.00;;;23.90
9119;BMP180;4594;50.994;7.126;2022-08-19T06:21:46;100469.00;;;24.10
9119;BMP180;4594;50.994;7.126;2022-08-19T06:24:21;100458.00;;;24.30
9119;BMP180;4594;50.994;7.126;2022-08-19T06:26:50;100475.00;;;24.50
9119;BMP180;4594;50.994;7.126;2022-08-19T06:29:20;100468.00;;;24.70
9119;BMP180;4594;50.994;7.126;2022-08-19T06:31:49;100464.00;;;24.90
9119;BMP180;4594;50.994;7.126;2022-08-19T06:34:16;100464.00;;;25.00
9119;BMP180;4594;50.994;7.126;2022-08-19T06:36:48;100476.00;;;25.20
9119;BMP180;4594;50.994;7.126;2022-08-19T06:39:25;100459.00;;;25.40
9119;BMP180;4594;50.994;7.126;2022-08-19T06:41:55;100471.00;;;25.50
9119;BMP180;4594;50.994;7.126;2022-08-19T06:44:24;100478.00;;;25.70
9119;BMP180;4594;50.994;7.126;2022-08-19T06:46:52;100487.00;;;25.90
9119;BMP180;4594;50.994;7.126;2022-08-19T06:49:18;100481.00;;;26.10
9119;BMP180;4594;50.994;7.126;2022-08-19T06:51:47;100490.00;;;26.20
9119;BMP180;4594;50.994;7.126;2022-08-19T06:54:14;100491.00;;;26.40
9119;BMP180;4594;50.994;7.126;2022-08-19T06:56:41;100490.00;;;26.60
9119;BMP180;4594;50.994;7.126;2022-08-19T06:59:18;100481.00;;;26.80
9119;BMP180;4594;50.994;7.126;2022-08-19T07:01:50;100485.00;;;27.00
9119;BMP180;4594;50.994;7.126;2022-08-19T07:04:27;100484.00;;;27.20
9119;BMP180;4594;50.994;7.126;2022-08-19T07:07:11;100484.00;;;27.40
9119;BMP180;4594;50.994;7.126;2022-08-19T07:09:41;100481.00;;;27.60
9119;BMP180;4594;50.994;7.126;2022-08-19T07:12:12;100490.00;;;27.90
9119;BMP180;4594;50.994;7.126;2022-08-19T07:14:40;100493.00;;;28.20
9119;BMP180;4594;50.994;7.126;2022-08-19T07:17:09;100510.00;;;28.50
9119;BMP180;4594;50.994;7.126;2022-08-19T07:19:38;100501.00;;;28.80
9119;BMP180;4594;50.994;7.126;2022-08-19T07:22:06;100516.00;;;29.10
9119;BMP180;4594;50.994;7.126;2022-08-19T07:24:33;100517.00;;;29.40
9119;BMP180;4594;50.994;7.126;2022-08-19T07:27:03;100510.00;;;29.60
9119;BMP180;4594;50.994;7.126;2022-08-19T07:29:32;100513.00;;;29.80
9119;BMP180;4594;50.994;7.126;2022-08-19T07:32:00;100511.00;;;30.10
9119;BMP180;4594;50.994;7.126;2022-08-19T07:34:29;100518.00;;;30.30
9119;BMP180;4594;50.994;7.126;2022-08-19T07:36:56;100507.00;;;30.40
9119;BMP180;4594;50.994;7.126;2022-08-19T07:39:32;100522.00;;;30.70
9119;BMP180;4594;50.994;7.126;2022-08-19T07:42:02;100518.00;;;31.00
9119;BMP180;4594;50.994;7.126;2022-08-19T07:44:29;100536.00;;;31.20
9119;BMP180;4594;50.994;7.126;2022-08-19T07:46:57;100525.00;;;31.50
9119;BMP180;4594;50.994;7.126;2022-08-19T07:49:23;100524.00;;;31.80
9119;BMP180;4594;50.994;7.126;2022-08-19T07:52:05;100526.00;;;31.90
9119;BMP180;4594;50.994;7.126;2022-08-19T07:54:34;100529.00;;;32.10
9119;BMP180;4594;50.994;7.126;2022-08-19T07:57:01;100533.00;;;32.30
9119;BMP180;4594;50.994;7.126;2022-08-19T07:59:28;100538.00;;;32.50
9119;BMP180;4594;50.994;7.126;2022-08-19T08:01:55;100537.00;;;32.60
9119;BMP180;4594;50.994;7.126;2022-08-19T08:04:21;100539.00;;;32.80
9119;BMP180;4594;50.994;7.126;2022-08-19T08:07:07;100553.00;;;32.90
9119;BMP180;4594;50.994;7.126;2022-08-19T08:09:52;100547.00;;;32.90
9119;BMP180;4594;50.994;7.126;2022-08-19T08:12:34;100560.00;;;32.90
9119;BMP180;4594;50.994;7.126;2022-08-19T08:15:07;100559.00;;;32.90
9119;BMP180;4594;50.994;7.126;2022-08-19T08:17:33;100535.00;;;33.20
9119;BMP180;4594;50.994;7.126;2022-08-19T08:19:59;100566.00;;;33.40
9119;BMP180;4594;50.994;7.126;2022-08-19T08:22:25;100551.00;;;33.60
9119;BMP180;4594;50.994;7.126;2022-08-19T08:25:17;100566.00;;;33.80
9119;BMP180;4594;50.994;7.126;2022-08-19T08:27:45;100570.00;;;34.10
9119;BMP180;4594;50.994;7.126;2022-08-19T08:30:22;100569.00;;;34.20
9119;BMP180;4594;50.994;7.126;2022-08-19T08:32:49;100561.00;;;34.60
9119;BMP180;4594;50.994;7.126;2022-08-19T08:35:19;100561.00;;;35.20
9119;BMP180;4594;50.994;7.126;2022-08-19T08:37:48;100549.00;;;35.80
9119;BMP180;4594;50.994;7.126;2022-08-19T08:43:44;100560.00;;;36.70
9119;BMP180;4594;50.994;7.126;2022-08-19T08:46:37;100553.00;;;37.00
9119;BMP180;4594;50.994;7.126;2022-08-19T08:49:24;100553.00;;;37.30
9119;BMP180;4594;50.994;7.126;2022-08-19T08:52:10;100557.00;;;37.50
9119;BMP180;4594;50.994;7.126;2022-08-19T08:54:44;100559.00;;;37.80
9119;BMP180;4594;50.994;7.126;2022-08-19T08:57:20;100555.00;;;38.00
9119;BMP180;4594;50.994;7.126;2022-08-19T08:59:50;100554.00;;;38.20
9119;BMP180;4594;50.994;7.126;2022-08-19T09:02:18;100560.00;;;38.60
9119;BMP180;4594;50.994;7.126;2022-08-19T09:04:44;100559.00;;;39.00
9119;BMP180;4594;50.994;7.126;2022-08-19T09:07:44;100554.00;;;39.60
9119;BMP180;4594;50.994;7.126;2022-08-19T09:10:26;100561.00;;;40.30
9119;BMP180;4594;50.994;7.126;2022-08-19T09:16:19;100551.00;;;42.00
9119;BMP180;4594;50.994;7.126;2022-08-19T09:18:55;100548.00;;;42.90
9119;BMP180;4594;50.994;7.126;2022-08-19T09:21:24;100558.00;;;43.70
9119;BMP180;4594;50.994;7.126;2022-08-19T09:23:52;100551.00;;;44.30
9119;BMP180;4594;50.994;7.126;2022-08-19T09:26:21;100563.00;;;44.70
9119;BMP180;4594;50.994;7.126;2022-08-19T09:28:50;100555.00;;;44.90
9119;BMP180;4594;50.994;7.126;2022-08-19T09:31:21;100566.00;;;45.00
9119;BMP180;4594;50.994;7.126;2022-08-19T09:33:48;100555.00;;;44.90
9119;BMP180;4594;50.994;7.126;2022-08-19T09:36:17;100556.00;;;44.80
9119;BMP180;4594;50.994;7.126;2022-08-19T09:38:44;100553.00;;;45.00
9119;BMP180;4594;50.994;7.126;2022-08-19T09:41:18;100556.00;;;45.20
9119;BMP180;4594;50.994;7.126;2022-08-19T09:43:48;100558.00;;;45.50
9119;BMP180;4594;50.994;7.126;2022-08-19T09:46:19;100554.00;;;45.80
9119;BMP180;4594;50.994;7.126;2022-08-19T09:48:50;100557.00;;;46.00
9119;BMP180;4594;50.994;7.126;2022-08-19T09:51:23;100547.00;;;46.30
9119;BMP180;4594;50.994;7.126;2022-08-19T09:53:51;100559.00;;;46.60
9119;BMP180;4594;50.994;7.126;2022-08-19T09:56:21;100563.00;;;46.50
9119;BMP180;4594;50.994;7.126;2022-08-19T09:58:48;100564.00;;;46.10
9119;BMP180;4594;50.994;7.126;2022-08-19T10:01:24;100548.00;;;45.80
9119;BMP180;4594;50.994;7.126;2022-08-19T10:03:54;100565.00;;;45.60
9119;BMP180;4594;50.994;7.126;2022-08-19T10:06:23;100555.00;;;45.40
9119;BMP180;4594;50.994;7.126;2022-08-19T10:08:50;100552.00;;;45.10
9119;BMP180;4594;50.994;7.126;2022-08-19T10:11:19;100561.00;;;44.90
9119;BMP180;4594;50.994;7.126;2022-08-19T10:13:45;100560.00;;;44.40
9119;BMP180;4594;50.994;7.126;2022-08-19T10:16:23;100560.00;;;43.80
9119;BMP180;4594;50.994;7.126;2022-08-19T10:18:50;100552.00;;;43.40
9119;BMP180;4594;50.994;7.126;2022-08-19T10:21:21;100552.00;;;43.60
9119;BMP180;4594;50.994;7.126;2022-08-19T10:23:49;100552.00;;;44.00
9119;BMP180;4594;50.994;7.126;2022-08-19T10:26:28;100561.00;;;44.30
9119;BMP180;4594;50.994;7.126;2022-08-19T10:28:56;100556.00;;;44.60
9119;BMP180;4594;50.994;7.126;2022-08-19T10:31:26;100551.00;;;45.00
9119;BMP180;4594;50.994;7.126;2022-08-19T10:33:52;100566.00;;;45.00
9119;BMP180;4594;50.994;7.126;2022-08-19T10:36:30;100554.00;;;45.00
9119;BMP180;4594;50.994;7.126;2022-08-19T10:38:59;100546.00;;;45.40
9119;BMP180;4594;50.994;7.126;2022-08-19T10:41:32;100547.00;;;45.80
9119;BMP180;4594;50.994;7.126;2022-08-19T10:44:03;100548.00;;;46.20
9119;BMP180;4594;50.994;7.126;2022-08-19T10:46:31;100543.00;;;46.50
9119;BMP180;4594;50.994;7.126;2022-08-19T10:49:00;100547.00;;;46.70
9119;BMP180;4594;50.994;7.126;2022-08-19T10:51:26;100541.00;;;46.70
9119;BMP180;4594;50.994;7.126;2022-08-19T10:54:10;100551.00;;;46.20
9119;BMP180;4594;50.994;7.126;2022-08-19T10:56:36;100539.00;;;46.00
9119;BMP180;4594;50.994;7.126;2022-08-19T10:59:23;100543.00;;;46.20
9119;BMP180;4594;50.994;7.126;2022-08-19T11:01:51;100546.00;;;46.50
9119;BMP180;4594;50.994;7.126;2022-08-19T11:04:18;100547.00;;;46.50
9119;BMP180;4594;50.994;7.126;2022-08-19T11:06:47;100535.00;;;46.50
9119;BMP180;4594;50.994;7.126;2022-08-19T11:09:19;100538.00;;;46.50
9119;BMP180;4594;50.994;7.126;2022-08-19T11:11:46;100532.00;;;46.40
9119;BMP180;4594;50.994;7.126;2022-08-19T11:14:17;100547.00;;;46.00
9119;BMP180;4594;50.994;7.126;2022-08-19T11:16:48;100542.00;;;45.40
9119;BMP180;4594;50.994;7.126;2022-08-19T11:19:16;100526.00;;;45.10
9119;BMP180;4594;50.994;7.126;2022-08-19T11:21:47;100520.00;;;45.20
9119;BMP180;4594;50.994;7.126;2022-08-19T11:24:22;100527.00;;;45.30
9119;BMP180;4594;50.994;7.126;2022-08-19T11:26:50;100531.00;;;44.90
9119;BMP180;4594;50.994;7.126;2022-08-19T11:29:22;100530.00;;;44.60
9119;BMP180;4594;50.994;7.126;2022-08-19T11:31:51;100523.00;;;44.00
9119;BMP180;4594;50.994;7.126;2022-08-19T11:34:24;100528.00;;;43.30
9119;BMP180;4594;50.994;7.126;2022-08-19T11:36:51;100533.00;;;42.70
9119;BMP180;4594;50.994;7.126;2022-08-19T11:39:21;100526.00;;;42.50
9119;BMP180;4594;50.994;7.126;2022-08-19T11:41:47;100523.00;;;42.30
9119;BMP180;4594;50.994;7.126;2022-08-19T11:44:13;100523.00;;;41.80
9119;BMP180;4594;50.994;7.126;2022-08-19T11:46:41;100525.00;;;41.40
9119;BMP180;4594;50.994;7.126;2022-08-19T11:49:11;100522.00;;;40.90
9119;BMP180;4594;50.994;7.126;2022-08-19T11:51:37;100529.00;;;40.60
9119;BMP180;4594;50.994;7.126;2022-08-19T11:54:05;100528.00;;;40.30
9119;BMP180;4594;50.994;7.126;2022-08-19T11:56:31;100520.00;;;40.00
9119;BMP180;4594;50.994;7.126;2022-08-19T11:58:58;100522.00;;;39.70
9119;BMP180;4594;50.994;7.126;2022-08-19T12:01:25;100533.00;;;39.60
9119;BMP180;4594;50.994;7.126;2022-08-19T12:03:54;100524.00;;;39.40
9119;BMP180;4594;50.994;7.126;2022-08-19T12:06:29;100520.00;;;39.20
9119;BMP180;4594;50.994;7.126;2022-08-19T12:09:04;100524.00;;;38.90
9119;BMP180;4594;50.994;7.126;2022-08-19T12:11:30;100525.00;;;38.70
9119;BMP180;4594;50.994;7.126;2022-08-19T12:13:56;100508.00;;;38.50
9119;BMP180;4594;50.994;7.126;2022-08-19T12:16:26;100524.00;;;38.40
9119;BMP180;4594;50.994;7.126;2022-08-19T12:18:53;100516.00;;;38.30
9119;BMP180;4594;50.994;7.126;2022-08-19T12:21:25;100525.00;;;38.20
9119;BMP180;4594;50.994;7.126;2022-08-19T12:23:53;100523.00;;;38.10
9119;BMP180;4594;50.994;7.126;2022-08-19T12:26:20;100527.00;;;38.10
9119;BMP180;4594;50.994;7.126;2022-08-19T12:28:46;100499.00;;;38.00
9119;BMP180;4594;50.994;7.126;2022-08-19T12:31:14;100513.00;;;38.00
9119;BMP180;4594;50.994;7.126;2022-08-19T12:33:41;100499.00;;;37.90
9119;BMP180;4594;50.994;7.126;2022-08-19T12:36:11;100522.00;;;37.80
9119;BMP180;4594;50.994;7.126;2022-08-19T12:38:39;100506.00;;;37.80
9119;BMP180;4594;50.994;7.126;2022-08-19T12:41:06;100509.00;;;37.70
9119;BMP180;4594;50.994;7.126;2022-08-19T12:43:34;100507.00;;;37.60
9119;BMP180;4594;50.994;7.126;2022-08-19T12:46:05;100511.00;;;37.50
9119;BMP180;4594;50.994;7.126;2022-08-19T12:48:34;100490.00;;;37.40
9119;BMP180;4594;50.994;7.126;2022-08-19T12:51:07;100503.00;;;37.40
9119;BMP180;4594;50.994;7.126;2022-08-19T12:53:33;100503.00;;;37.30
9119;BMP180;4594;50.994;7.126;2022-08-19T12:55:59;100487.00;;;37.10
9119;BMP180;4594;50.994;7.126;2022-08-19T12:58:27;100470.00;;;37.00
9119;BMP180;4594;50.994;7.126;2022-08-19T13:00:54;100500.00;;;36.90
9119;BMP180;4594;50.994;7.126;2022-08-19T13:03:19;100510.00;;;36.70
9119;BMP180;4594;50.994;7.126;2022-08-19T13:05:47;100474.00;;;36.60
9119;BMP180;4594;50.994;7.126;2022-08-19T13:08:15;100476.00;;;36.50
9119;BMP180;4594;50.994;7.126;2022-08-19T13:10:42;100479.00;;;36.40
9119;BMP180;4594;50.994;7.126;2022-08-19T13:13:08;100476.00;;;36.30
9119;BMP180;4594;50.994;7.126;2022-08-19T13:15:40;100471.00;;;36.30
9119;BMP180;4594;50.994;7.126;2022-08-19T13:18:09;100463.00;;;36.20
9119;BMP180;4594;50.994;7.126;2022-08-19T13:20:37;100477.00;;;36.10
9119;BMP180;4594;50.994;7.126;2022-08-19T13:23:04;100476.00;;;36.10
9119;BMP180;4594;50.994;7.126;2022-08-19T13:25:30;100467.00;;;36.00
9119;BMP180;4594;50.994;7.126;2022-08-19T13:27:56;100464.00;;;36.10
9119;BMP180;4594;50.994;7.126;2022-08-19T13:30:23;100457.00;;;36.10
9119;BMP180;4594;50.994;7.126;2022-08-19T13:33:08;100467.00;;;36.00
9119;BMP180;4594;50.994;7.126;2022-08-19T13:38:11;100459.00;;;36.00
9119;BMP180;4594;50.994;7.126;2022-08-19T13:40:38;100462.00;;;35.90
9119;BMP180;4594;50.994;7.126;2022-08-19T13:43:05;100459.00;;;35.80
9119;BMP180;4594;50.994;7.126;2022-08-19T13:45:33;100458.00;;;35.90
9119;BMP180;4594;50.994;7.126;2022-08-19T13:48:03;100454.00;;;35.80
9119;BMP180;4594;50.994;7.126;2022-08-19T13:50:33;100450.00;;;35.70
9119;BMP180;4594;50.994;7.126;2022-08-19T13:53:00;100452.00;;;35.70
9119;BMP180;4594;50.994;7.126;2022-08-19T13:55:27;100443.00;;;35.70
9119;BMP180;4594;50.994;7.126;2022-08-19T13:57:55;100454.00;;;35.60
9119;BMP180;4594;50.994;7.126;2022-08-19T14:00:25;100445.00;;;35.60
9119;BMP180;4594;50.994;7.126;2022-08-19T14:02:54;100437.00;;;35.50
9119;BMP180;4594;50.994;7.126;2022-08-19T14:05:22;100434.00;;;35.40
9119;BMP180;4594;50.994;7.126;2022-08-19T14:07:48;100424.00;;;35.30
9119;BMP180;4594;50.994;7.126;2022-08-19T14:10:15;100452.00;;;35.30
9119;BMP180;4594;50.994;7.126;2022-08-19T14:12:40;100446.00;;;35.20
9119;BMP180;4594;50.994;7.126;2022-08-19T14:15:09;100436.00;;;35.10
9119;BMP180;4594;50.994;7.126;2022-08-19T14:17:43;100457.00;;;35.20
9119;BMP180;4594;50.994;7.126;2022-08-19T14:20:12;100455.00;;;35.10
9119;BMP180;4594;50.994;7.126;2022-08-19T14:22:41;100455.00;;;35.10
9119;BMP180;4594;50.994;7.126;2022-08-19T14:25:16;100460.00;;;35.10
9119;BMP180;4594;50.994;7.126;2022-08-19T14:27:42;100474.00;;;35.10
9119;BMP180;4594;50.994;7.126;2022-08-19T14:30:11;100468.00;;;35.00
9119;BMP180;4594;50.994;7.126;2022-08-19T14:32:37;100475.00;;;35.00
9119;BMP180;4594;50.994;7.126;2022-08-19T14:35:05;100464.00;;;35.00
9119;BMP180;4594;50.994;7.126;2022-08-19T14:37:34;100470.00;;;35.00
9119;BMP180;4594;50.994;7.126;2022-08-19T14:40:00;100460.00;;;34.90
9119;BMP180;4594;50.994;7.126;2022-08-19T14:42:26;100460.00;;;34.80
9119;BMP180;4594;50.994;7.126;2022-08-19T14:44:51;100456.00;;;34.70
9119;BMP180;4594;50.994;7.126;2022-08-19T14:47:17;100451.00;;;34.60